createdAt,value
2022-10-13T00:00:01.369Z,100334.38
2022-10-13T00:05:03.058Z,100340.53
2022-10-13T00:10:05.072Z,100335.72
2022-10-13T00:15:08.909Z,100334.41
2022-10-13T00:20:11.845Z,100331.44
2022-10-13T00:25:13.616Z,100330.34
2022-10-13T00:30:16.074Z,100325.88
2022-10-13T00:35:17.724Z,100328.16
2022-10-13T00:40:19.526Z,100327.13
2022-10-13T00:45:25.364Z,100329.41
2022-10-13T00:50:32.237Z,100328.31
2022-10-13T00:55:37.033Z,100324.59
2022-10-13T01:00:38.779Z,100319.63
2022-10-13T01:05:42.384Z,100318.84
2022-10-13T01:11:28.351Z,100314.44
2022-10-13T01:16:45.245Z,100322.09
2022-10-13T01:22:19.788Z,100316.81
2022-10-13T01:27:59.157Z,100318.72
2022-10-13T01:33:24.041Z,100309.00
2022-10-13T01:38:55.197Z,100306.41
2022-10-13T01:44:10.004Z,100301.75
2022-10-13T01:49:14.705Z,100294.69
2022-10-13T01:54:16.477Z,100296.94
2022-10-13T01:59:18.202Z,100292.19
2022-10-13T02:04:33.026Z,100286.69
2022-10-13T02:09:58.360Z,100284.78
2022-10-13T02:15:38.918Z,100281.34
2022-10-13T02:20:46.069Z,100279.91
2022-10-13T02:25:50.008Z,100280.19
2022-10-13T02:30:51.941Z,100283.16
2022-10-13T02:35:53.652Z,100274.56
2022-10-13T02:40:55.283Z,100271.19
2022-10-13T02:45:57.098Z,100276.53
2022-10-13T02:50:58.775Z,100279.13
2022-10-13T02:56:00.416Z,100282.06
2022-10-13T03:01:15.025Z,100268.28
2022-10-13T03:06:16.723Z,100274.00
2022-10-13T03:11:18.370Z,100272.63
2022-10-13T03:16:20.343Z,100262.88
2022-10-13T03:21:22.050Z,100266.69
2022-10-13T03:26:23.765Z,100269.66
2022-10-13T03:31:25.506Z,100264.16
2022-10-13T03:36:35.127Z,100253.25
2022-10-13T03:41:36.885Z,100248.59
2022-10-13T03:46:38.557Z,100249.25
2022-10-13T03:51:40.374Z,100258.03
2022-10-13T03:56:42.963Z,100263.38
2022-10-13T04:01:44.676Z,100251.34
2022-10-13T04:06:46.363Z,100252.91
2022-10-13T04:11:52.847Z,100253.63
2022-10-13T04:16:54.546Z,100245.06
2022-10-13T04:21:56.246Z,100244.34
2022-10-13T04:26:58.017Z,100242.25
2022-10-13T04:32:00.231Z,100238.06
2022-10-13T04:37:01.898Z,100226.81
2022-10-13T04:42:03.687Z,100233.28
2022-10-13T04:47:05.348Z,100228.88
2022-10-13T04:52:07.087Z,100229.44
2022-10-13T04:57:08.755Z,100230.34
2022-10-13T05:02:10.625Z,100224.69
2022-10-13T05:07:17.895Z,100228.22
2022-10-13T05:12:20.681Z,100218.34
2022-10-13T05:17:23.385Z,100221.88
2022-10-13T05:22:25.989Z,100217.38
2022-10-13T05:27:27.650Z,100208.78
2022-10-13T05:32:29.322Z,100203.16
2022-10-13T05:37:30.987Z,100203.28
2022-10-13T05:42:33.288Z,100208.25
2022-10-13T05:47:35.119Z,100202.44
2022-10-13T05:52:37.938Z,100201.59
2022-10-13T05:57:43.809Z,100201.59
2022-10-13T06:02:54.972Z,100210.31
2022-10-13T06:07:56.777Z,100206.69
2022-10-13T06:12:58.431Z,100196.53
2022-10-13T06:18:00.233Z,100194.88
2022-10-13T06:23:02.199Z,100198.66
2022-10-13T06:28:05.908Z,100204.41
2022-10-13T06:33:08.081Z,100212.16
2022-10-13T06:38:10.771Z,100215.66
2022-10-13T06:43:13.053Z,100219.03
2022-10-13T06:48:17.296Z,100222.22
2022-10-13T06:53:19.493Z,100232.28
2022-10-13T06:58:21.151Z,100233.56
2022-10-13T07:03:23.930Z,100239.16
2022-10-13T07:08:26.116Z,100230.00
2022-10-13T07:13:27.851Z,100232.94
2022-10-13T07:18:29.683Z,100246.22
2022-10-13T07:23:31.351Z,100243.66
2022-10-13T07:28:33.064Z,100236.34
2022-10-13T07:33:34.743Z,100236.19
2022-10-13T07:38:36.485Z,100219.69
2022-10-13T07:43:38.546Z,100216.69
2022-10-13T07:48:41.805Z,100209.97
2022-10-13T07:53:46.610Z,100208.91
2022-10-13T07:58:48.398Z,100204.75
2022-10-13T08:03:50.664Z,100200.50
2022-10-13T08:08:53.340Z,100202.69
2022-10-13T08:14:00.742Z,100191.00
2022-10-13T08:19:02.432Z,100179.53
2022-10-13T08:24:06.128Z,100175.94
2022-10-13T08:29:24.322Z,100165.69
2022-10-13T08:34:26.368Z,100157.94
2022-10-13T08:39:29.077Z,100150.81
2022-10-13T08:50:11.542Z,100137.56
2022-10-13T08:55:51.853Z,100133.53
2022-10-13T09:01:08.761Z,100123.94
2022-10-13T09:06:48.749Z,100118.00
2022-10-13T09:11:51.228Z,100122.38
2022-10-13T09:16:54.159Z,100111.41
2022-10-13T09:22:15.577Z,100107.63
2022-10-13T09:27:17.739Z,100104.97
2022-10-13T09:32:23.921Z,100099.69
2022-10-13T09:37:26.134Z,100100.28
2022-10-13T09:42:30.173Z,100085.28
2022-10-13T09:47:36.171Z,100091.41
2022-10-13T09:52:37.917Z,100080.06
2022-10-13T09:57:48.693Z,100090.94
2022-10-13T10:03:05.663Z,100087.78
2022-10-13T10:08:14.002Z,100088.88
2022-10-13T10:13:15.714Z,100084.00
2022-10-13T10:18:25.471Z,100075.72
2022-10-13T10:24:06.829Z,100078.09
2022-10-13T10:29:27.338Z,100062.38
2022-10-13T10:34:43.531Z,100066.78
2022-10-13T10:40:20.623Z,100058.31
2022-10-13T10:45:26.460Z,100057.72
2022-10-13T10:50:30.052Z,100058.19
2022-10-13T10:55:57.602Z,100045.53
2022-10-13T11:01:08.222Z,100032.38
2022-10-13T11:06:17.650Z,100023.34
2022-10-13T11:11:26.710Z,100018.78
2022-10-13T11:16:29.778Z,100012.53
2022-10-13T11:21:59.325Z,99998.59
2022-10-13T11:27:16.036Z,99988.47
2022-10-13T11:32:32.927Z,99979.47
2022-10-13T11:37:48.254Z,99974.81
2022-10-13T11:43:09.749Z,99972.66
2022-10-13T11:48:27.091Z,99968.78
2022-10-13T11:54:00.822Z,99974.53
2022-10-13T11:59:02.883Z,99962.63
2022-10-13T12:04:14.675Z,99960.72
2022-10-13T12:09:21.353Z,99956.63
2022-10-13T12:14:31.790Z,99943.72
2022-10-13T12:19:34.008Z,99943.75
2022-10-13T12:24:35.740Z,99946.25
2022-10-13T12:29:40.638Z,99960.66
2022-10-13T12:34:42.338Z,99942.88
2022-10-13T12:39:44.570Z,99948.25
2022-10-13T12:44:46.431Z,99945.22
2022-10-13T12:49:48.142Z,99940.19
2022-10-13T12:54:55.927Z,99947.84
2022-10-13T12:59:57.633Z,99941.97
2022-10-13T13:04:59.640Z,99947.16
2022-10-13T13:10:16.175Z,99942.22
2022-10-13T13:15:38.051Z,99938.88
2022-10-13T13:20:39.758Z,99937.13
2022-10-13T13:25:41.452Z,99935.56
2022-10-13T13:30:43.902Z,99933.97
2022-10-13T13:35:45.598Z,99926.16
2022-10-13T13:40:47.381Z,99923.34
2022-10-13T13:45:49.188Z,99924.97
2022-10-13T13:50:50.906Z,99916.00
2022-10-13T13:55:52.584Z,99933.59
2022-10-13T14:00:54.983Z,99927.50
2022-10-13T14:05:56.661Z,99921.28
2022-10-13T14:10:58.794Z,99904.81
2022-10-13T14:16:02.183Z,99893.16
2022-10-13T14:21:07.299Z,99883.91
2022-10-13T14:26:09.679Z,99891.78
2022-10-13T14:31:11.885Z,99893.19
2022-10-13T14:36:15.658Z,99891.75
2022-10-13T14:41:18.136Z,99885.53
2022-10-13T14:46:20.788Z,99877.34
2022-10-13T14:51:22.553Z,99881.81
2022-10-13T14:56:30.142Z,99879.72
2022-10-13T15:01:33.604Z,99878.91
2022-10-13T15:06:35.866Z,99877.66
2022-10-13T15:11:37.556Z,99874.94
2022-10-13T15:16:39.227Z,99866.81
2022-10-13T15:21:41.020Z,99859.56
2022-10-13T15:26:42.677Z,99860.38
2022-10-13T15:31:44.325Z,99852.47
2022-10-13T15:36:45.988Z,99858.88
2022-10-13T15:41:47.806Z,99860.50
2022-10-13T15:47:07.155Z,99856.69
2022-10-13T15:52:09.941Z,99852.91
2022-10-13T15:57:11.644Z,99863.81
2022-10-13T16:02:13.366Z,99859.75
2022-10-13T16:07:15.017Z,99853.34
2022-10-13T16:12:18.327Z,99856.19
2022-10-13T16:17:21.643Z,99860.34
2022-10-13T16:22:23.606Z,99844.00
2022-10-13T16:27:25.461Z,99850.38
2022-10-13T16:32:27.278Z,99844.63
2022-10-13T16:37:30.411Z,99857.41
2022-10-13T16:42:32.118Z,99860.22
2022-10-13T16:47:33.800Z,99872.44
2022-10-13T16:52:37.129Z,99876.56
2022-10-13T16:57:39.268Z,99881.41
2022-10-13T17:02:40.960Z,99890.13
2022-10-13T17:07:42.708Z,99890.03
2022-10-13T17:12:44.593Z,99889.75
2022-10-13T17:17:46.321Z,99896.06
2022-10-13T17:22:47.977Z,99908.25
2022-10-13T17:27:49.655Z,99905.97
2022-10-13T17:32:52.228Z,99916.41
2022-10-13T17:37:54.781Z,99908.41
2022-10-13T17:42:56.640Z,99909.34
2022-10-13T17:47:58.865Z,99917.25
2022-10-13T17:53:03.501Z,99916.81
2022-10-13T17:58:05.208Z,99919.13
2022-10-13T18:03:06.875Z,99916.66
2022-10-13T18:08:08.559Z,99921.53
2022-10-13T18:13:13.205Z,99918.22
2022-10-13T18:18:15.040Z,99908.72
2022-10-13T18:23:16.787Z,99915.84
2022-10-13T18:28:18.513Z,99915.72
2022-10-13T18:33:20.210Z,99915.22
2022-10-13T18:38:23.882Z,99907.19
2022-10-13T18:43:25.527Z,99910.97
2022-10-13T18:48:27.660Z,99909.84
2022-10-13T18:53:29.343Z,99909.56
2022-10-13T18:58:31.656Z,99898.81
2022-10-13T19:03:35.192Z,99896.06
2022-10-13T19:08:37.087Z,99886.41
2022-10-13T19:13:39.787Z,99886.78
2022-10-13T19:18:42.415Z,99893.03
2022-10-13T19:23:44.395Z,99899.00
2022-10-13T19:29:05.647Z,99879.91
2022-10-13T19:34:08.312Z,99890.50
2022-10-13T19:39:19.428Z,99883.38
2022-10-13T19:44:22.483Z,99885.16
2022-10-13T19:49:26.408Z,99889.94
2022-10-13T19:54:33.628Z,99890.91
2022-10-13T19:59:36.522Z,99896.00
2022-10-13T20:04:38.213Z,99890.31
2022-10-13T20:09:40.601Z,99892.34
2022-10-13T20:14:42.351Z,99895.22
2022-10-13T20:19:44.208Z,99899.25
2022-10-13T20:24:45.886Z,99899.44
2022-10-13T20:29:47.542Z,99902.81
2022-10-13T20:34:49.394Z,99898.06
2022-10-13T20:39:51.046Z,99902.44
2022-10-13T20:44:52.816Z,99899.44
2022-10-13T20:49:54.449Z,99901.25
2022-10-13T20:54:56.086Z,99906.50
2022-10-13T21:00:00.100Z,99907.31
2022-10-13T21:05:01.770Z,99893.88
2022-10-13T21:10:03.684Z,99910.66
2022-10-13T21:15:06.561Z,99901.22
2022-10-13T21:20:09.255Z,99885.94
2022-10-13T21:25:10.893Z,99890.34
2022-10-13T21:30:12.918Z,99883.91
2022-10-13T21:35:15.112Z,99888.38
2022-10-13T21:40:16.975Z,99887.94
2022-10-13T21:45:18.679Z,99879.22
2022-10-13T21:50:20.391Z,99878.88
2022-10-13T21:55:23.199Z,99891.00
2022-10-13T22:00:25.366Z,99892.63
2022-10-13T22:05:27.039Z,99884.81
2022-10-13T22:10:31.951Z,99871.56
2022-10-13T22:15:34.861Z,99880.63
2022-10-13T22:20:36.789Z,99870.34
2022-10-13T22:25:44.864Z,99861.81
2022-10-13T22:30:46.530Z,99858.59
2022-10-13T22:35:48.682Z,99854.75
2022-10-13T22:40:51.042Z,99859.44
2022-10-13T22:45:52.735Z,99855.41
2022-10-13T22:50:54.428Z,99859.13
2022-10-13T22:55:56.114Z,99865.13
2022-10-13T23:01:04.711Z,99864.50
2022-10-13T23:06:08.285Z,99856.44
2022-10-13T23:11:10.862Z,99856.75
2022-10-13T23:16:16.036Z,99863.09
2022-10-13T23:21:20.248Z,99864.25
2022-10-13T23:26:21.951Z,99860.50
2022-10-13T23:31:24.919Z,99851.75
2022-10-13T23:36:29.505Z,99861.84
2022-10-13T23:41:31.229Z,99847.44
2022-10-13T23:46:32.919Z,99848.13
2022-10-13T23:51:34.597Z,99844.91
2022-10-13T23:56:36.258Z,99850.44
